Terminal Aerodrome Forecast
Issued by NWS

Home | Current Version | Previous Version | Text Only | Print | Product List | Glossary On
Versions: 1 2 3 4 5 6 7 8 9 10 11 12
000
FTUS45 KVEF 272300
TAFHND
TAF
KHND 272320Z 2800/2824 VRB05KT P6SM BKN250
     FM280200 17006KT P6SM BKN250
     FM281700 VRB05KT P6SM FEW250=

USA.gov is the U.S. government's official web portal to all federal, state and local government web resources and services.